Station: Busselton Airport  

  Atmospheric Gas Attenuation - ITU Rec 676-11   ----------------- dB/100km -----------------
Date Time Temp RH % AH g/m3 Dew Point Wind Direction Speed kph Gust kph Barometer mB Rainfall Since 9am 24GHz 47GHz 76GHz 122GHz 134GHz 241GHz
06/05 19:00 14.2 71 8.67 9 15 17 1030.4 0 19.7 26.5 40.6 106.5 100.2 344.7
06/05 18:50 14.4 71 8.78 9.2 15 17 1030.4 0 19.9 26.7 41.0 107.4 101.4 349.0
06/05 18:40 14.2 71 8.67 9 15 15 1030.3 0 19.7 26.5 40.6 106.5 100.2 344.7
06/05 18:30 14.7 70 8.81 9.3 13 15 1030.2 0 20.0 26.6 40.9 107.3 101.4 349.0
06/05 18:20 14.7 70 8.81 9.3 13 13 1030.2 0 20.0 26.6 40.9 107.3 101.4 349.0
06/05 18:10 14.8 69 8.74 9.2 13 15 1030.1 0 19.8 26.5 40.6 106.4 100.4 345.3
06/05 18:00 15.1 69 8.9 9.5 13 13 1030.1 0 20.1 26.6 41.1 107.7 102.1 351.4
06/05 17:50 15.4 68 8.93 9.5 13 13 1030 0 20.2 26.6 41.1 107.6 102.1 351.4
06/05 17:40 15.8 67 9.02 9.7 13 13 1029.9 0 20.4 26.6 41.2 108.0 102.7 353.8
06/05 17:30 16.7 64 9.09 9.9 15 17 1029.8 0 20.5 26.5 41.0 107.5 102.5 352.9
06/05 17:20 17.4 62 9.19 10.1 15 15 1029.7 0 20.6 26.4 41.1 107.6 102.8 354.3
06/05 17:10 17.9 61 9.31 10.3 13 15 1029.7 0 20.9 26.4 41.3 108.2 103.7 357.5
06/05 17:00 18.9 57 9.23 10.2 13 19 1029.6 0 20.7 26.0 40.4 106.0 101.4 349.5
06/05 16:50 19.4 54 9.01 9.9 15 17 1029.6 0 20.2 25.5 39.4 103.1 98.0 337.6
06/05 16:40 19.6 56 9.45 10.6 9 11 1029.5 0 21.1 26.2 40.9 107.3 103.3 356.1
06/05 16:30 19.9 53 9.11 10 15 20 1029.5 0 20.4 25.6 39.5 103.5 98.6 339.8
06/05 16:20 20.2 52 9.09 10 15 17 1029.4 0 20.3 25.4 39.3 102.9 98.0 337.6
06/05 16:10 20 54 9.33 10.4 15 17 1029.4 0 20.8 25.9 40.3 105.6 101.2 349.0
06/05 16:00 20.4 51 9.02 9.9 13 20 1029.2 0 20.1 25.3 38.9 101.9 96.8 333.7
06/05 15:50 20.3 54 9.5 10.7 11 11 1029.2 0 21.2 26.0 40.8 106.9 103.0 355.1
06/05 15:40 20.5 52 9.25 10.3 15 17 1029.2 0 20.6 25.6 39.7 104.1 99.6 343.3
06/05 15:30 20.3 54 9.5 10.7 13 17 1029.1 0 21.2 26.0 40.8 106.9 103.0 355.1
06/05 15:20 20.5 53 9.43 10.6 15 17 1029.2 0 21.0 25.9 40.4 105.9 101.8 351.2
06/05 15:10 20.6 52 9.31 10.4 17 19 1029.2 0 20.7 25.6 39.9 104.6 100.2 345.5
06/05 15:00 20.7 55 9.9 11.3 13 22 1029.1 0 22.0 26.5 42.1 110.4 107.5 371.0
06/05 14:50 20.5 54 9.61 10.9 9 11 1029.1 0 21.4 26.1 41.1 107.7 104.1 359.1
06/05 14:40 20.9 52 9.47 10.7 20 22 1029.1 0 21.1 25.8 40.3 105.8 101.8 351.1
06/05 14:30 20.7 53 9.54 10.8 13 19 1029 0 21.2 26.0 40.7 106.7 102.9 355.1
06/05 14:20 20.4 53 9.38 10.5 19 20 1029.2 0 20.9 25.8 40.3 105.5 101.3 349.4
06/05 14:10 20 53 9.16 10.1 15 17 1029.3 0 20.5 25.6 39.6 103.8 99.1 341.5
06/05 14:00 20.2 54 9.44 10.6 13 22 1029.2 0 21.0 26.0 40.6 106.4 102.3 352.9
06/05 13:50 20.4 54 9.55 10.8 15 19 1029.3 0 21.3 26.1 40.9 107.3 103.5 356.9
06/05 13:40 19.9 56 9.62 10.9 13 15 1029.3 0 21.4 26.3 41.4 108.7 105.0 362.3
06/05 13:30 20 56 9.68 11 17 26 1029.2 0 21.5 26.4 41.6 109.1 105.6 364.5
06/05 13:20 20.2 56 9.79 11.1 15 20 1029.4 0 21.8 26.5 41.9 110.0 106.8 368.5
06/05 13:10 19.8 56 9.56 10.8 19 20 1029.4 0 21.3 26.3 41.3 108.2 104.4 360.1
06/05 13:00 19.8 57 9.74 11 19 24 1029.5 0 21.7 26.6 42.0 110.1 106.7 368.2
06/05 12:50 19.4 57 9.51 10.7 17 20 1029.7 0 21.2 26.3 41.3 108.3 104.3 359.8
06/05 12:40 19.2 57 9.4 10.5 15 19 1029.8 0 21.0 26.2 41.0 107.4 103.2 355.8
06/05 12:30 19.2 58 9.56 10.7 17 24 1029.9 0 21.3 26.5 41.6 109.1 105.2 363.0
06/05 12:20 18.9 57 9.23 10.2 19 20 1030 0 20.7 26.0 40.5 106.1 101.4 349.6
06/05 12:10 18.9 60 9.72 11 19 22 1030.1 0 21.7 26.8 42.4 111.2 107.7 371.6
06/05 12:00 18.8 59 9.5 10.6 20 26 1030.3 0 21.2 26.5 41.6 109.0 105.0 362.2
06/05 11:50 18.2 59 9.17 10.1 22 24 1030.3 0 20.6 26.2 40.6 106.4 101.6 350.0
06/05 11:40 18.2 59 9.17 10.1 24 28 1030.4 0 20.6 26.2 40.6 106.4 101.6 350.1
06/05 11:30 18 60 9.21 10.1 22 28 1030.5 0 20.7 26.3 40.9 107.1 102.4 352.8
06/05 11:20 17.7 60 9.05 9.8 24 28 1030.7 0 20.3 26.1 40.4 105.9 100.7 346.9
06/05 11:10 17.6 62 9.3 10.2 22 28 1030.8 0 20.9 26.6 41.4 108.6 104.1 358.7
06/05 11:00 17.4 61 9.04 9.8 24 33 1030.8 0 20.3 26.2 40.5 106.2 101.0 347.8
06/05 10:50 17.1 62 9.02 9.8 28 32 1030.8 0 20.3 26.3 40.6 106.3 101.1 348.2
06/05 10:40 17 63 9.12 9.9 20 24 1030.9 0 20.5 26.5 41.0 107.5 102.6 353.3
06/05 10:30 16.7 63 8.95 9.6 26 32 1031 0 20.2 26.3 40.5 106.2 100.7 346.9
06/05 10:20 16.4 64 8.93 9.6 26 32 1031.1 0 20.1 26.3 40.6 106.4 100.9 347.3
06/05 10:10 16.2 64 8.83 9.4 26 32 1031.1 0 19.9 26.2 40.3 105.6 99.8 343.6
06/05 10:00 15.9 64 8.67 9.1 26 33 1031.2 0 19.6 26.1 39.8 104.3 98.1 337.6
06/05 09:50 16 66 8.99 9.7 24 28 1031.2 0 20.3 26.6 41.0 107.6 102.2 351.8
06/05 09:40 15.4 65 8.54 8.9 28 32 1031.2 0 19.4 26.0 39.6 103.6 97.1 333.8
06/05 09:30 15.3 68 8.88 9.4 24 35 1031.3 0 20.1 26.6 41.0 107.3 101.7 349.9
06/05 09:20 15 69 8.85 9.4 24 30 1031.4 0 20.0 26.6 41.0 107.4 101.7 349.9
06/05 09:00 14.1 73 8.86 9.3 22 28 1031.4 0 20.1 26.9 41.5 108.8 103.0 354.4
06/05 07:40 10.4 88 8.48 8.5 15 17 1030.9 0.2 19.5 27.4 41.9 109.7 102.7 352.7
06/05 07:30 10.2 88 8.38 8.3 13 17 1030.9 0.2 19.3 27.3 41.5 108.8 101.5 348.8
06/05 07:20 9.8 89 8.26 8.1 13 13 1030.8 0.2 19.0 27.2 41.2 108.0 100.4 344.7
06/05 07:10 9.9 89 8.31 8.2 13 13 1030.7 0.2 19.1 27.3 41.4 108.4 100.9 346.6
06/05 07:00 9.6 88 8.06 7.7 15 19 1030.6 0.2 18.6 26.9 40.5 106.0 97.8 335.7
06/05 06:50 9.5 89 8.1 7.8 15 17 1030.5 0.2 18.7 27.0 40.7 106.6 98.5 338.1
06/05 06:40 9 89 7.85 7.3 11 13 1030.5 0.2 18.2 26.7 39.9 104.4 95.7 328.0
06/05 06:30 9.1 89 7.9 7.4 11 13 1030.4 0.2 18.3 26.8 40.1 104.8 96.2 330.0
06/05 06:20 8.7 89 7.7 7 11 13 1030.3 0.2 17.9 26.6 39.4 103.1 93.9 322.0
06/05 06:10 9 88 7.76 7.1 11 11 1030.3 0.2 18.0 26.6 39.5 103.4 94.4 323.6
06/05 06:00 9.2 88 7.86 7.3 9 9 1030.2 0.2 18.2 26.7 39.8 104.2 95.5 327.6
06/05 05:50 9.3 87 7.82 7.3 7 9 1030.1 0.2 18.1 26.6 39.6 103.6 94.8 325.2
06/05 05:40 9.3 86 7.73 7.1 9 9 1030 0.2 17.9 26.4 39.2 102.6 93.6 320.9
06/05 05:30 9.7 85 7.84 7.3 11 15 1029.9 0.2 18.1 26.5 39.5 103.3 94.6 324.5
06/05 05:20 10 85 7.99 7.6 13 13 1029.8 0.2 18.4 26.6 40.0 104.6 96.3 330.4
06/05 05:10 9.9 86 8.03 7.7 13 15 1029.7 0.2 18.5 26.7 40.2 105.1 97.0 332.7
06/05 05:00 9.5 86 7.83 7.3 15 17 1029.5 0.2 18.1 26.5 39.5 103.4 94.7 324.7
06/05 04:50 9.9 85 7.94 7.5 15 17 1029.5 0.2 18.3 26.6 39.8 104.1 95.7 328.4
06/05 04:40 10 85 7.99 7.6 15 17 1029.4 0.2 18.4 26.6 39.9 104.5 96.3 330.3
06/05 04:30 9.4 87 7.87 7.3 15 17 1029.2 0.2 18.2 26.6 39.7 104.0 95.3 327.0
06/05 04:20 9.3 85 7.64 6.9 15 17 1029.2 0.2 17.7 26.2 38.8 101.5 92.3 316.3
06/05 04:10 9.8 84 7.8 7.2 17 17 1029.2 0.2 18.1 26.4 39.2 102.7 93.9 322.0
06/05 04:00 10.2 83 7.9 7.4 15 19 1029.1 0.2 18.2 26.4 39.5 103.2 94.8 325.1
06/05 03:50 10.4 83 8 7.6 15 17 1029.1 0.2 18.5 26.5 39.8 104.1 95.9 329.0
06/05 03:40 10.2 84 8 7.6 15 19 1029.1 0.2 18.5 26.6 39.9 104.3 96.1 329.9
06/05 03:30 10.3 83 7.95 7.5 17 19 1029 0.2 18.3 26.5 39.6 103.7 95.3 327.0
06/05 03:20 10.3 84 8.05 7.7 17 19 1029.1 0.2 18.6 26.6 40.0 104.8 96.7 331.8
06/05 03:10 10.2 83 7.9 7.4 17 19 1029 0.2 18.2 26.4 39.4 103.2 94.8 325.0
06/05 03:00 10.8 82 8.11 7.9 17 19 1028.9 0.2 18.7 26.6 40.0 104.7 96.9 332.5
06/05 02:50 10.9 81 8.06 7.8 17 19 1029 0.2 18.6 26.5 39.8 104.1 96.1 329.8
06/05 02:40 11 81 8.11 7.9 17 17 1028.9 0.2 18.7 26.5 39.9 104.5 96.6 331.7
06/05 02:30 10.7 82 8.06 7.8 17 22 1028.8 0.2 18.6 26.5 39.9 104.3 96.3 330.6
06/05 02:20 11 80 8.01 7.7 17 17 1028.9 0.2 18.4 26.3 39.5 103.4 95.3 326.9
06/05 02:10 11 81 8.11 7.9 17 19 1028.9 0.2 18.7 26.5 39.9 104.5 96.6 331.7
06/05 02:00 11 80 8.01 7.7 17 20 1028.9 0.2 18.4 26.3 39.5 103.4 95.3 326.9
06/05 01:50 11.4 79 8.11 7.9 19 22 1029 0.2 18.6 26.4 39.7 104.0 96.1 330.0
06/05 01:40 11.5 79 8.16 8 19 20 1029 0.2 18.7 26.4 39.9 104.4 96.7 332.0
06/05 01:30 11.1 80 8.06 7.8 19 22 1028.9 0.2 18.5 26.4 39.7 103.8 95.8 328.9
06/05 01:20 11.2 79 8.01 7.7 19 20 1029 0.2 18.4 26.3 39.4 103.1 95.0 326.1
06/05 01:10 11.3 79 8.06 7.8 17 20 1028.9 0.2 18.5 26.3 39.6 103.5 95.6 328.1

Last Refresh: 06-May-2026 20:41:49

Bureau of Meteorology